createdAt,value
2024-03-31T00:00:55.770Z,8.1422
2024-03-31T00:01:59.083Z,8.1422
2024-03-31T00:03:02.062Z,8.1689
2024-03-31T00:04:05.219Z,8.1289
2024-03-31T00:05:08.509Z,8.0728
2024-03-31T00:06:11.624Z,8.0007
2024-03-31T00:07:14.808Z,7.9740
2024-03-31T00:08:17.808Z,7.9019
2024-03-31T00:09:20.860Z,7.8191
2024-03-31T00:10:23.868Z,7.7764
2024-03-31T00:11:27.081Z,7.7070
2024-03-31T00:12:30.162Z,7.7337
2024-03-31T00:13:33.217Z,7.6509
2024-03-31T00:14:36.532Z,7.7203
2024-03-31T00:15:39.630Z,7.7897
2024-03-31T00:16:42.590Z,7.8325
2024-03-31T00:17:45.690Z,7.9179
2024-03-31T00:18:48.819Z,7.9446
2024-03-31T00:19:51.876Z,7.9179
2024-03-31T00:20:54.895Z,7.8325
2024-03-31T00:21:57.942Z,7.8191
2024-03-31T00:23:00.982Z,7.7337
2024-03-31T00:24:04.053Z,7.6776
2024-03-31T00:25:07.084Z,7.8031
2024-03-31T00:26:10.122Z,7.7203
2024-03-31T00:27:13.068Z,7.7070
2024-03-31T00:28:16.229Z,7.6215
2024-03-31T00:29:20.405Z,7.5788
2024-03-31T00:30:23.365Z,7.6082
2024-03-31T00:31:26.487Z,7.5227
2024-03-31T00:32:29.729Z,7.4399
2024-03-31T00:33:32.839Z,7.4239
2024-03-31T00:34:37.024Z,7.4105
2024-03-31T00:35:40.038Z,7.3224
2024-03-31T00:36:43.107Z,7.3651
2024-03-31T00:37:46.144Z,7.3972
2024-03-31T00:38:49.145Z,7.2530
2024-03-31T00:39:52.218Z,7.3651
2024-03-31T00:40:55.259Z,7.2530
2024-03-31T00:41:59.235Z,7.1542
2024-03-31T00:43:02.296Z,7.0554
2024-03-31T00:44:05.335Z,7.2396
2024-03-31T00:45:08.538Z,7.2663
2024-03-31T00:46:11.651Z,7.1836
2024-03-31T00:47:14.831Z,7.3224
2024-03-31T00:48:17.927Z,7.3224
2024-03-31T00:49:20.889Z,7.3812
2024-03-31T00:50:23.827Z,7.4533
2024-03-31T00:51:26.819Z,7.4105
2024-03-31T00:52:29.887Z,7.3091
2024-03-31T00:53:33.022Z,7.3091
2024-03-31T00:54:36.022Z,7.3091
2024-03-31T00:55:39.104Z,7.2530
2024-03-31T00:56:42.064Z,7.2530
2024-03-31T00:57:45.157Z,7.3518
2024-03-31T00:58:48.192Z,7.3651
2024-03-31T00:59:51.290Z,7.2957
2024-03-31T01:00:54.296Z,7.3518
2024-03-31T01:01:57.348Z,7.2530
2024-03-31T01:03:00.425Z,7.2396
2024-03-31T01:04:03.415Z,7.1542
2024-03-31T01:05:06.485Z,7.2824
2024-03-31T01:06:09.476Z,7.2957
2024-03-31T01:07:12.542Z,7.3384
2024-03-31T01:08:15.535Z,7.2263
2024-03-31T01:09:20.764Z,7.2263
2024-03-31T01:10:23.908Z,7.1969
2024-03-31T01:11:26.936Z,7.1969
2024-03-31T01:12:30.006Z,7.1836
2024-03-31T01:13:32.988Z,7.0420
2024-03-31T01:14:36.058Z,7.0554
2024-03-31T01:15:39.088Z,7.1969
2024-03-31T01:16:42.143Z,7.2103
2024-03-31T01:17:45.174Z,7.1836
2024-03-31T01:18:48.234Z,7.0420
2024-03-31T01:19:51.168Z,7.1542
2024-03-31T01:20:54.494Z,7.1675
2024-03-31T01:21:57.644Z,7.0714
2024-03-31T01:23:00.622Z,7.0714
2024-03-31T01:24:03.748Z,7.0714
2024-03-31T01:25:06.798Z,7.0420
2024-03-31T01:26:09.971Z,7.1542
2024-03-31T01:27:13.094Z,7.1115
2024-03-31T01:28:16.232Z,7.0848
2024-03-31T01:29:19.411Z,6.9432
2024-03-31T01:30:22.375Z,6.9726
2024-03-31T01:31:25.579Z,7.0848
2024-03-31T01:32:28.847Z,7.0287
2024-03-31T01:33:32.019Z,6.9993
2024-03-31T01:34:35.074Z,7.0287
2024-03-31T01:35:38.339Z,6.9432
2024-03-31T01:36:41.447Z,6.9993
2024-03-31T01:37:44.538Z,6.9726
2024-03-31T01:38:55.197Z,7.0420
2024-03-31T01:39:56.376Z,6.9993
2024-03-31T01:40:59.431Z,6.9299
2024-03-31T01:42:02.456Z,6.9860
2024-03-31T01:43:05.481Z,6.9860
2024-03-31T01:44:08.520Z,6.9993
2024-03-31T01:45:11.503Z,6.9165
2024-03-31T01:46:14.649Z,6.9165
2024-03-31T01:47:17.663Z,7.0153
2024-03-31T01:48:20.828Z,6.9860
2024-03-31T01:49:23.961Z,6.9432
2024-03-31T01:50:27.059Z,7.0287
2024-03-31T01:51:30.313Z,6.9299
2024-03-31T01:52:33.377Z,6.9165
2024-03-31T01:53:36.580Z,6.8311
2024-03-31T01:54:39.808Z,6.8738
2024-03-31T01:55:42.935Z,6.8311
2024-03-31T01:56:45.987Z,6.9165
2024-03-31T01:57:48.984Z,6.8177
2024-03-31T01:58:51.934Z,6.9005
2024-03-31T01:59:55.076Z,6.9299
2024-03-31T02:00:58.270Z,6.8605
2024-03-31T02:02:01.365Z,6.9005
2024-03-31T02:03:04.539Z,6.8044
2024-03-31T02:04:07.730Z,6.7750
2024-03-31T02:05:10.818Z,6.7750
2024-03-31T02:06:13.972Z,6.8311
2024-03-31T02:07:16.954Z,6.8605
2024-03-31T02:08:20.072Z,6.8444
2024-03-31T02:09:23.099Z,6.7617
2024-03-31T02:10:26.097Z,6.7884
2024-03-31T02:11:29.153Z,6.7323
2024-03-31T02:12:32.231Z,6.8444
2024-03-31T02:13:35.251Z,6.8311
2024-03-31T02:14:38.241Z,6.8311
2024-03-31T02:15:41.337Z,6.8311
2024-03-31T02:16:44.384Z,6.7456
2024-03-31T02:17:47.405Z,6.6335
2024-03-31T02:18:50.447Z,6.6335
2024-03-31T02:19:53.423Z,6.4920
2024-03-31T02:20:56.474Z,6.4759
2024-03-31T02:21:59.600Z,6.4198
2024-03-31T02:23:02.606Z,6.5480
2024-03-31T02:24:05.588Z,6.5908
2024-03-31T02:25:08.573Z,6.6068
2024-03-31T02:26:11.723Z,6.7323
2024-03-31T02:27:14.700Z,6.7056
2024-03-31T02:28:17.768Z,6.7056
2024-03-31T02:29:20.859Z,6.5747
2024-03-31T02:30:23.853Z,6.4492
2024-03-31T02:31:26.950Z,6.4759
2024-03-31T02:32:29.949Z,6.6068
2024-03-31T02:33:33.022Z,6.5320
2024-03-31T02:34:36.047Z,6.5187
2024-03-31T02:35:39.046Z,6.5320
2024-03-31T02:36:42.140Z,6.5053
2024-03-31T02:37:45.118Z,6.5320
2024-03-31T02:38:48.219Z,6.6201
2024-03-31T02:39:51.239Z,6.5908
2024-03-31T02:40:54.248Z,6.5747
2024-03-31T02:41:57.355Z,6.4065
2024-03-31T02:43:00.377Z,6.3504
2024-03-31T02:44:03.358Z,6.3371
2024-03-31T02:45:06.387Z,6.3504
2024-03-31T02:46:09.380Z,6.3931
2024-03-31T02:47:12.486Z,6.5320
2024-03-31T02:48:15.583Z,6.4920
2024-03-31T02:49:18.557Z,6.4759
2024-03-31T02:50:21.638Z,6.5614
2024-03-31T02:51:24.686Z,6.5187
2024-03-31T02:52:27.747Z,6.4626
2024-03-31T02:53:30.790Z,6.4920
2024-03-31T02:54:33.826Z,6.6201
2024-03-31T02:55:36.829Z,6.6068
2024-03-31T02:56:39.924Z,6.4759
2024-03-31T02:57:42.949Z,6.4626
2024-03-31T02:58:45.981Z,6.5747
2024-03-31T02:59:48.967Z,6.5480
2024-03-31T03:00:52.030Z,6.5053
2024-03-31T03:01:55.085Z,6.5187
2024-03-31T03:02:58.149Z,6.5053
2024-03-31T03:04:01.135Z,6.5053
2024-03-31T03:05:04.191Z,6.4626
2024-03-31T03:06:07.188Z,6.3371
2024-03-31T03:07:10.269Z,6.3798
2024-03-31T03:08:13.355Z,6.4359
2024-03-31T03:09:16.362Z,6.4492
2024-03-31T03:10:19.351Z,6.3798
2024-03-31T03:11:22.456Z,6.3210
2024-03-31T03:12:26.475Z,6.4626
2024-03-31T03:13:29.443Z,6.5747
2024-03-31T03:14:32.550Z,6.6335
2024-03-31T03:15:35.597Z,6.6201
2024-03-31T03:16:38.574Z,6.5747
2024-03-31T03:17:41.638Z,6.5747
2024-03-31T03:18:44.731Z,6.5320
2024-03-31T03:19:47.711Z,6.5187
2024-03-31T03:20:50.780Z,6.5614
2024-03-31T03:21:53.836Z,6.4626
2024-03-31T03:22:56.823Z,6.4759
2024-03-31T03:23:59.785Z,6.4198
2024-03-31T03:25:02.942Z,6.3638
2024-03-31T03:26:05.998Z,6.4920
2024-03-31T03:27:09.014Z,6.6628
2024-03-31T03:28:12.060Z,6.6201
2024-03-31T03:29:15.061Z,6.5480
2024-03-31T03:30:18.116Z,6.6068
2024-03-31T03:31:21.163Z,6.6068
2024-03-31T03:32:24.219Z,6.6068
2024-03-31T03:33:27.364Z,6.7323
2024-03-31T03:34:30.380Z,6.8872
2024-03-31T03:35:33.545Z,6.8444
2024-03-31T03:36:36.545Z,6.8872
2024-03-31T03:37:39.639Z,6.8738
2024-03-31T03:38:42.779Z,6.8044
2024-03-31T03:39:45.768Z,6.8605
2024-03-31T03:40:48.743Z,6.8738
2024-03-31T03:41:51.873Z,6.9165
2024-03-31T03:42:54.929Z,6.8872
2024-03-31T03:43:57.967Z,6.7884
2024-03-31T03:45:00.987Z,6.7750
2024-03-31T03:46:04.061Z,6.7189
2024-03-31T03:47:07.125Z,6.6762
2024-03-31T03:48:10.113Z,6.6068
2024-03-31T03:49:13.173Z,6.6762
2024-03-31T03:50:16.167Z,6.7323
2024-03-31T03:51:19.264Z,6.8044
2024-03-31T03:52:22.315Z,6.7056
2024-03-31T03:53:25.369Z,6.6495
2024-03-31T03:54:28.372Z,6.8177
2024-03-31T03:55:31.388Z,6.8444
2024-03-31T03:56:34.323Z,6.8177
2024-03-31T03:57:37.420Z,6.7884
2024-03-31T03:58:40.566Z,6.7884
2024-03-31T03:59:43.591Z,6.7617
2024-03-31T04:00:46.579Z,6.7617
2024-03-31T04:01:50.633Z,6.7617
2024-03-31T04:02:53.597Z,6.7456
2024-03-31T04:03:56.708Z,6.7189
2024-03-31T04:04:59.743Z,6.7323
2024-03-31T04:06:02.757Z,6.6762
2024-03-31T04:07:05.805Z,6.7189
2024-03-31T04:08:08.869Z,6.7189
2024-03-31T04:09:11.837Z,6.7189
2024-03-31T04:10:14.963Z,6.7323
2024-03-31T04:11:17.987Z,6.6762
2024-03-31T04:12:20.962Z,6.6335
2024-03-31T04:13:24.040Z,6.6068
2024-03-31T04:14:27.097Z,6.5614
2024-03-31T04:15:30.094Z,6.5320
2024-03-31T04:16:33.186Z,6.5320
2024-03-31T04:17:36.221Z,6.5187
2024-03-31T04:18:39.226Z,6.6201
2024-03-31T04:19:42.148Z,6.6628
2024-03-31T04:20:45.136Z,6.6068
2024-03-31T04:21:48.257Z,6.5908
2024-03-31T04:22:51.224Z,6.5908
2024-03-31T04:23:54.322Z,6.5480
2024-03-31T04:24:57.471Z,6.4920
2024-03-31T04:26:00.535Z,6.4198
2024-03-31T04:27:03.588Z,6.3931
2024-03-31T04:28:06.613Z,6.4759
2024-03-31T04:29:09.648Z,6.4492
2024-03-31T04:30:12.708Z,6.5480
2024-03-31T04:31:15.760Z,6.5320
2024-03-31T04:32:18.774Z,6.5480
2024-03-31T04:33:21.874Z,6.6201
2024-03-31T04:34:24.867Z,6.6335
2024-03-31T04:35:27.852Z,6.6495
2024-03-31T04:36:30.926Z,6.6335
2024-03-31T04:37:33.990Z,6.6068
2024-03-31T04:38:36.977Z,6.5747
2024-03-31T04:39:39.958Z,6.5747
2024-03-31T04:40:43.085Z,6.6201
2024-03-31T04:41:46.280Z,6.6068
2024-03-31T04:42:49.375Z,6.6628
2024-03-31T04:43:52.523Z,6.5908
2024-03-31T04:44:55.725Z,6.6201
2024-03-31T04:45:58.820Z,6.6762
2024-03-31T04:47:01.965Z,6.7056
2024-03-31T04:48:05.172Z,6.7189
2024-03-31T04:49:08.169Z,6.7189
2024-03-31T04:50:11.300Z,6.6896
2024-03-31T04:51:14.438Z,6.6628
2024-03-31T04:52:17.498Z,6.6335
2024-03-31T04:53:20.539Z,6.6335
2024-03-31T04:54:23.549Z,6.7056
2024-03-31T04:55:26.603Z,6.6335
2024-03-31T04:56:29.649Z,6.5747
2024-03-31T04:57:32.658Z,6.5480
2024-03-31T04:58:35.705Z,6.5053
2024-03-31T04:59:38.799Z,6.5480
2024-03-31T05:00:41.893Z,6.5187
2024-03-31T05:01:44.854Z,6.5747
2024-03-31T05:02:47.904Z,6.5480
2024-03-31T05:03:50.962Z,6.4920
2024-03-31T05:04:53.994Z,6.4626
2024-03-31T05:05:57.011Z,6.4492
2024-03-31T05:07:00.025Z,6.4065
2024-03-31T05:08:03.043Z,6.3638
2024-03-31T05:09:05.989Z,6.4359
2024-03-31T05:10:09.059Z,6.5053
2024-03-31T05:11:12.225Z,6.5187
2024-03-31T05:12:15.286Z,6.5320
2024-03-31T05:13:18.498Z,6.5187
2024-03-31T05:14:21.583Z,6.5320
2024-03-31T05:15:24.708Z,6.5747
2024-03-31T05:16:27.739Z,6.6335
2024-03-31T05:17:30.757Z,6.5747
2024-03-31T05:18:33.832Z,6.5747
2024-03-31T05:19:36.839Z,6.5053
2024-03-31T05:20:39.787Z,6.5320
2024-03-31T05:21:42.916Z,6.6201
2024-03-31T05:22:45.983Z,6.5614
2024-03-31T05:23:49.024Z,6.5614
2024-03-31T05:24:52.059Z,6.5053
2024-03-31T05:25:55.123Z,6.5053
2024-03-31T05:26:58.144Z,6.5614
2024-03-31T05:28:01.147Z,6.5614
2024-03-31T05:29:04.240Z,6.5747
2024-03-31T05:30:07.245Z,6.5747
2024-03-31T05:31:10.377Z,6.5908
2024-03-31T05:32:13.563Z,6.6335
2024-03-31T05:33:16.673Z,6.6335
2024-03-31T05:34:19.649Z,6.6335
2024-03-31T05:35:22.756Z,6.5747
2024-03-31T05:36:25.825Z,6.6335
2024-03-31T05:37:28.862Z,6.6628
2024-03-31T05:38:31.919Z,6.6628
2024-03-31T05:39:34.927Z,6.6762
2024-03-31T05:40:37.920Z,6.6335
2024-03-31T05:41:41.001Z,6.6896
2024-03-31T05:42:44.078Z,6.7189
2024-03-31T05:43:47.031Z,6.7189
2024-03-31T05:44:50.180Z,6.7056
2024-03-31T05:45:53.167Z,6.7189
2024-03-31T05:46:56.365Z,6.7056
2024-03-31T05:47:59.507Z,6.7056
2024-03-31T05:49:02.632Z,6.7056
2024-03-31T05:50:05.795Z,6.7617
2024-03-31T05:51:08.892Z,6.8177
2024-03-31T05:52:12.037Z,6.8177
2024-03-31T05:53:15.243Z,6.7617
2024-03-31T05:54:18.367Z,6.7617
2024-03-31T05:55:21.330Z,6.7884
2024-03-31T05:56:24.415Z,6.7884
2024-03-31T05:57:27.604Z,6.8177
2024-03-31T05:58:30.602Z,6.8738
2024-03-31T05:59:33.582Z,6.8738
2024-03-31T06:00:36.537Z,6.8738
2024-03-31T06:01:39.619Z,6.8311
2024-03-31T06:02:42.765Z,6.9005
2024-03-31T06:03:45.805Z,6.8738
2024-03-31T06:04:48.872Z,6.8738
2024-03-31T06:05:51.893Z,6.8605
2024-03-31T06:06:54.962Z,6.8605
2024-03-31T06:07:58.024Z,6.8177
2024-03-31T06:09:01.005Z,6.8738
2024-03-31T06:10:04.125Z,6.9165
2024-03-31T06:11:07.118Z,6.9566
2024-03-31T06:12:10.110Z,6.9860
2024-03-31T06:13:13.123Z,7.0153
2024-03-31T06:14:16.208Z,7.0554
2024-03-31T06:15:19.233Z,7.1115
2024-03-31T06:16:22.211Z,7.0981
2024-03-31T06:17:25.475Z,7.0981
2024-03-31T06:18:28.583Z,7.0714
2024-03-31T06:19:31.860Z,7.1275
2024-03-31T06:20:34.967Z,7.0420
2024-03-31T06:21:38.085Z,7.1115
2024-03-31T06:22:41.317Z,7.0848
2024-03-31T06:23:44.421Z,7.1115
2024-03-31T06:24:47.616Z,7.1115
2024-03-31T06:25:50.607Z,7.1275
2024-03-31T06:26:53.665Z,7.1275
2024-03-31T06:27:56.707Z,7.1836
2024-03-31T06:28:59.889Z,7.1836
2024-03-31T06:30:02.982Z,7.2824
2024-03-31T06:31:06.016Z,7.2824
2024-03-31T06:32:09.360Z,7.2663
2024-03-31T06:33:12.428Z,7.2957
2024-03-31T06:34:15.564Z,7.3518
2024-03-31T06:35:18.764Z,7.4960
2024-03-31T06:36:21.851Z,7.5093
2024-03-31T06:37:25.025Z,7.5788
2024-03-31T06:38:28.065Z,7.6349
2024-03-31T06:39:31.089Z,7.5788
2024-03-31T06:40:34.164Z,7.6349
2024-03-31T06:41:37.159Z,7.7470
2024-03-31T06:42:40.201Z,7.7470
2024-03-31T06:43:43.260Z,7.8031
2024-03-31T06:44:46.304Z,7.8885
2024-03-31T06:45:49.367Z,7.9580
2024-03-31T06:46:52.389Z,8.1289
2024-03-31T06:47:55.409Z,8.1556
2024-03-31T06:48:58.471Z,8.0434
2024-03-31T06:50:01.505Z,8.0728
2024-03-31T06:51:04.684Z,8.1422
2024-03-31T06:52:09.686Z,8.0140
2024-03-31T06:53:12.792Z,7.9873
2024-03-31T06:54:15.773Z,7.9873
2024-03-31T06:55:18.918Z,8.0995
2024-03-31T06:56:22.098Z,8.1289
2024-03-31T06:57:25.250Z,8.2864
2024-03-31T06:58:28.263Z,8.1556
2024-03-31T06:59:31.364Z,8.2704
2024-03-31T07:00:34.466Z,8.2570
2024-03-31T07:01:37.457Z,8.2437
2024-03-31T07:02:40.690Z,8.4546
2024-03-31T07:03:43.799Z,8.3986
2024-03-31T07:04:46.904Z,8.3825
2024-03-31T07:05:49.922Z,8.4119
2024-03-31T07:06:53.002Z,8.3131
2024-03-31T07:07:56.080Z,8.5935
2024-03-31T07:08:59.040Z,8.5668
2024-03-31T07:10:02.093Z,8.3265
2024-03-31T07:11:05.188Z,8.4386
2024-03-31T07:12:08.241Z,8.2437
2024-03-31T07:13:11.232Z,8.3265
2024-03-31T07:14:14.331Z,8.4680
2024-03-31T07:15:17.382Z,8.4386
2024-03-31T07:16:20.398Z,8.4680
2024-03-31T07:17:23.443Z,8.3692
2024-03-31T07:18:26.471Z,8.2010
2024-03-31T07:19:29.519Z,8.2437
2024-03-31T07:20:32.540Z,8.2010
2024-03-31T07:21:35.569Z,8.2998
2024-03-31T07:22:38.580Z,8.3986
2024-03-31T07:23:41.766Z,8.3986
2024-03-31T07:24:44.770Z,8.4386
2024-03-31T07:25:47.955Z,8.4974
2024-03-31T07:26:51.102Z,8.3558
2024-03-31T07:27:54.114Z,8.5374
2024-03-31T07:28:57.175Z,8.4974
2024-03-31T07:30:00.257Z,8.4546
2024-03-31T07:31:03.246Z,8.5107
2024-03-31T07:32:06.188Z,8.5802
2024-03-31T07:33:09.325Z,8.6229
2024-03-31T07:34:12.583Z,8.7350
2024-03-31T07:35:15.753Z,8.6923
2024-03-31T07:36:18.795Z,8.7083
2024-03-31T07:37:21.822Z,8.7484
2024-03-31T07:38:24.867Z,8.8472
2024-03-31T07:39:27.846Z,8.8205
2024-03-31T07:40:30.926Z,8.9326
2024-03-31T07:41:34.142Z,9.0047
2024-03-31T07:42:37.225Z,9.0902
2024-03-31T07:43:40.374Z,9.1463
2024-03-31T07:44:43.423Z,9.1035
2024-03-31T07:45:46.463Z,8.9780
2024-03-31T07:46:49.510Z,9.2023
2024-03-31T07:47:52.558Z,9.4266
2024-03-31T07:48:55.578Z,9.2157
2024-03-31T07:49:58.622Z,9.3011
2024-03-31T07:51:01.613Z,9.4827
2024-03-31T07:52:04.724Z,9.6376
2024-03-31T07:53:09.349Z,9.5548
2024-03-31T07:54:13.978Z,9.6109
2024-03-31T07:55:17.164Z,9.7257
2024-03-31T07:56:20.283Z,9.8245
2024-03-31T07:57:23.389Z,9.6510
2024-03-31T07:58:26.390Z,9.8245
2024-03-31T07:59:29.493Z,9.9794
2024-03-31T08:00:32.544Z,9.8940
2024-03-31T08:01:35.722Z,9.9367
2024-03-31T08:02:38.818Z,10.2304
2024-03-31T08:03:41.981Z,10.5722
2024-03-31T08:04:44.968Z,10.3025
2024-03-31T08:05:48.069Z,10.3746
2024-03-31T08:06:51.125Z,10.2304
2024-03-31T08:07:54.104Z,10.4307
2024-03-31T08:08:57.179Z,10.5001
2024-03-31T08:10:00.292Z,10.5589
2024-03-31T08:11:03.390Z,10.9380
2024-03-31T08:12:06.507Z,10.8099
2024-03-31T08:13:09.535Z,10.4173
2024-03-31T08:14:12.851Z,10.4440
2024-03-31T08:15:15.943Z,10.6844
2024-03-31T08:16:19.083Z,10.8392
2024-03-31T08:17:22.263Z,10.9648
2024-03-31T08:18:25.392Z,11.0796
2024-03-31T08:19:28.561Z,10.7832
2024-03-31T08:20:31.611Z,11.0208
2024-03-31T08:21:34.594Z,11.2077
2024-03-31T08:22:37.645Z,11.3760
2024-03-31T08:23:40.726Z,11.0368
2024-03-31T08:24:43.753Z,11.3626
2024-03-31T08:25:46.809Z,11.3333
2024-03-31T08:26:49.777Z,11.2345
2024-03-31T08:27:52.858Z,11.0208
2024-03-31T08:28:55.934Z,11.0368
2024-03-31T08:29:58.932Z,11.0529
2024-03-31T08:31:01.948Z,11.3066
2024-03-31T08:32:05.033Z,10.9380
2024-03-31T08:33:08.037Z,10.8953
2024-03-31T08:34:11.016Z,10.9380
2024-03-31T08:35:14.147Z,11.0075
2024-03-31T08:36:17.190Z,10.7965
2024-03-31T08:37:20.414Z,10.8659
2024-03-31T08:38:23.590Z,10.9808
2024-03-31T08:39:26.583Z,10.9514
2024-03-31T08:40:29.668Z,10.8953
2024-03-31T08:41:32.690Z,11.0529
2024-03-31T08:42:35.719Z,10.9941
2024-03-31T08:43:38.963Z,10.7832
2024-03-31T08:44:42.139Z,10.9648
2024-03-31T08:45:45.162Z,10.9941
2024-03-31T08:46:48.223Z,10.8659
2024-03-31T08:47:51.237Z,10.8953
2024-03-31T08:48:54.301Z,10.7965
2024-03-31T08:49:57.317Z,10.8953
2024-03-31T08:51:00.384Z,11.0796
2024-03-31T08:52:03.460Z,10.8953
2024-03-31T08:53:06.439Z,10.9087
2024-03-31T08:54:09.505Z,10.9087
2024-03-31T08:55:12.549Z,11.0075
2024-03-31T08:56:15.514Z,10.9648
2024-03-31T08:57:18.615Z,11.2345
2024-03-31T08:58:21.693Z,11.1223
2024-03-31T08:59:24.674Z,10.9514
2024-03-31T09:00:27.754Z,11.1357
2024-03-31T09:01:30.779Z,11.1089
2024-03-31T09:02:33.966Z,11.1223
2024-03-31T09:03:36.959Z,11.1223
2024-03-31T09:04:39.947Z,11.1944
2024-03-31T09:05:42.912Z,11.2638
2024-03-31T09:06:45.988Z,11.0208
2024-03-31T09:07:49.015Z,11.3199
2024-03-31T09:08:52.018Z,11.3893
2024-03-31T09:09:55.299Z,11.3199
2024-03-31T09:10:58.464Z,11.2905
2024-03-31T09:12:01.472Z,11.1944
2024-03-31T09:13:07.198Z,11.2638
2024-03-31T09:14:10.408Z,11.0208
2024-03-31T09:15:13.501Z,11.1784
2024-03-31T09:16:16.549Z,11.4454
2024-03-31T09:17:19.595Z,11.2505
2024-03-31T09:18:22.642Z,10.9648
2024-03-31T09:19:25.739Z,11.0208
2024-03-31T09:20:28.696Z,11.0796
2024-03-31T09:21:31.746Z,11.0075
2024-03-31T09:22:34.784Z,10.9514
2024-03-31T09:23:37.947Z,11.0208
2024-03-31T09:24:41.055Z,10.8659
2024-03-31T09:25:44.225Z,10.7404
2024-03-31T09:26:47.399Z,10.7271
2024-03-31T09:27:50.504Z,10.9941
2024-03-31T09:28:53.669Z,11.1357
2024-03-31T09:29:56.655Z,11.0956
2024-03-31T09:30:59.753Z,11.2772
2024-03-31T09:32:02.762Z,10.9941
2024-03-31T09:33:05.766Z,11.0796
2024-03-31T09:34:08.853Z,11.2077
2024-03-31T09:35:11.920Z,11.4321
2024-03-31T09:36:14.902Z,11.5309
2024-03-31T09:37:17.988Z,11.5869
2024-03-31T09:38:21.001Z,11.8299
2024-03-31T09:39:24.024Z,11.6430
2024-03-31T09:40:27.080Z,11.9554
2024-03-31T09:41:30.153Z,12.1103
2024-03-31T09:42:33.147Z,11.7124
2024-03-31T09:43:36.222Z,11.4748
2024-03-31T09:44:39.269Z,11.6991
2024-03-31T09:45:42.443Z,12.6177
2024-03-31T09:46:45.536Z,12.7886
2024-03-31T09:47:48.710Z,12.2919
2024-03-31T09:48:51.764Z,13.1838
2024-03-31T09:49:54.759Z,12.3079
2024-03-31T09:50:57.825Z,11.8139
2024-03-31T09:52:00.825Z,11.6564
2024-03-31T09:53:03.883Z,11.4054
2024-03-31T09:54:06.950Z,11.6163
2024-03-31T09:55:09.924Z,11.3466
2024-03-31T09:56:13.020Z,11.3466
2024-03-31T09:57:16.062Z,11.1089
2024-03-31T09:58:19.088Z,11.2505
2024-03-31T09:59:22.107Z,11.3760
2024-03-31T10:00:25.086Z,11.5442
2024-03-31T10:01:28.201Z,11.6564
2024-03-31T10:02:31.198Z,11.5869
2024-03-31T10:03:34.283Z,11.8433
2024-03-31T10:04:37.331Z,11.9261
2024-03-31T10:05:40.336Z,11.8006
2024-03-31T10:06:43.429Z,11.7578
2024-03-31T10:07:46.475Z,11.5869
2024-03-31T10:08:49.671Z,12.0676
2024-03-31T10:09:52.809Z,11.8433
2024-03-31T10:10:55.882Z,11.8994
2024-03-31T10:11:59.095Z,12.1370
2024-03-31T10:13:02.182Z,11.8860
2024-03-31T10:14:05.307Z,12.3346
2024-03-31T10:15:08.527Z,12.4041
2024-03-31T10:16:11.623Z,12.4041
2024-03-31T10:17:14.746Z,12.3907
2024-03-31T10:18:17.808Z,12.1103
2024-03-31T10:19:20.902Z,12.2919
2024-03-31T10:20:23.857Z,12.4228
2024-03-31T10:21:26.858Z,12.5483
2024-03-31T10:22:29.975Z,12.7592
2024-03-31T10:23:33.030Z,12.9007
2024-03-31T10:24:36.029Z,12.8847
2024-03-31T10:25:39.075Z,13.1571
2024-03-31T10:26:42.091Z,13.7179
2024-03-31T10:27:45.144Z,13.4642
2024-03-31T10:28:48.206Z,13.2265
2024-03-31T10:29:51.249Z,13.1971
2024-03-31T10:30:54.311Z,12.7592
2024-03-31T10:31:57.343Z,12.9995
2024-03-31T10:33:00.356Z,13.2132
2024-03-31T10:34:03.434Z,12.7325
2024-03-31T10:35:06.646Z,12.8847
2024-03-31T10:36:09.828Z,12.9007
2024-03-31T10:37:12.847Z,13.2265
2024-03-31T10:38:15.855Z,13.0983
2024-03-31T10:39:18.958Z,13.6351
2024-03-31T10:40:21.970Z,13.3253
2024-03-31T10:41:25.010Z,12.9568
2024-03-31T10:42:28.084Z,13.4936
2024-03-31T10:43:31.069Z,13.7606
2024-03-31T10:44:34.162Z,13.9876
2024-03-31T10:45:37.186Z,14.0436
2024-03-31T10:46:40.183Z,13.8193
2024-03-31T10:47:43.428Z,13.9475
2024-03-31T10:48:46.638Z,14.2412
2024-03-31T10:49:49.624Z,14.1852
2024-03-31T10:50:52.670Z,14.1585
2024-03-31T10:51:55.769Z,13.9315
2024-03-31T10:52:58.776Z,14.7780
2024-03-31T10:54:01.829Z,14.3694
2024-03-31T10:55:04.864Z,13.9742
2024-03-31T10:56:07.849Z,13.8621
2024-03-31T10:57:10.874Z,13.7045
2024-03-31T10:58:13.975Z,14.1985
2024-03-31T10:59:17.019Z,13.7312
2024-03-31T11:00:20.199Z,14.4656
2024-03-31T11:01:23.308Z,14.2546
2024-03-31T11:02:26.473Z,13.6618
2024-03-31T11:03:29.522Z,13.8487
2024-03-31T11:04:32.552Z,14.4656
2024-03-31T11:05:35.526Z,13.9475
2024-03-31T11:06:38.519Z,13.8621
2024-03-31T11:07:41.538Z,14.0730
2024-03-31T11:08:44.731Z,14.3828
2024-03-31T11:09:47.763Z,14.3267
2024-03-31T11:10:50.775Z,13.9181
2024-03-31T11:11:55.003Z,13.9181
2024-03-31T11:12:59.102Z,14.3961
2024-03-31T11:14:02.163Z,15.0744
2024-03-31T11:15:05.308Z,15.4002
2024-03-31T11:16:08.418Z,15.9663
2024-03-31T11:17:11.591Z,17.6165
2024-03-31T11:18:14.746Z,16.1612
2024-03-31T11:19:20.025Z,17.0371
2024-03-31T11:20:24.422Z,17.7981
2024-03-31T11:21:27.624Z,17.3762
2024-03-31T11:22:30.610Z,18.6473
2024-03-31T11:23:33.661Z,17.6432
2024-03-31T11:24:36.713Z,16.8128
2024-03-31T11:25:39.721Z,17.4750
2024-03-31T11:26:42.763Z,16.3321
2024-03-31T11:27:45.851Z,16.6846
2024-03-31T11:28:48.809Z,15.9503
2024-03-31T11:29:51.881Z,15.6966
2024-03-31T11:30:54.979Z,15.6806
2024-03-31T11:31:58.002Z,15.5417
2024-03-31T11:33:01.065Z,15.3147
2024-03-31T11:34:04.114Z,15.2319
2024-03-31T11:35:07.104Z,15.3868
2024-03-31T11:36:10.113Z,15.4696
2024-03-31T11:37:13.104Z,15.2586
2024-03-31T11:38:16.149Z,15.3147
2024-03-31T11:39:19.183Z,15.7660
2024-03-31T11:40:22.215Z,15.4562
2024-03-31T11:41:25.218Z,15.2880
2024-03-31T11:42:28.239Z,15.4696
2024-03-31T11:43:31.294Z,15.4696
2024-03-31T11:44:34.287Z,15.6672
2024-03-31T11:45:37.330Z,15.7527
2024-03-31T11:46:40.360Z,16.0784
2024-03-31T11:47:43.368Z,16.5724
2024-03-31T11:48:46.367Z,16.6712
2024-03-31T11:49:49.383Z,16.6419
2024-03-31T11:50:52.414Z,16.4282
2024-03-31T11:51:55.419Z,16.4015
2024-03-31T11:52:58.419Z,16.0651
2024-03-31T11:54:01.422Z,15.7099
2024-03-31T11:55:04.455Z,15.8541
2024-03-31T11:56:07.456Z,16.0357
2024-03-31T11:57:10.484Z,17.1626
2024-03-31T11:58:13.485Z,16.4870
2024-03-31T11:59:16.485Z,17.0504
2024-03-31T12:00:19.492Z,17.5872
2024-03-31T12:01:22.523Z,17.9717
2024-03-31T12:02:25.536Z,18.2654
2024-03-31T12:03:28.524Z,17.7581
2024-03-31T12:04:31.577Z,18.4497
2024-03-31T12:05:34.536Z,18.1827
2024-03-31T12:06:37.558Z,18.0839
2024-03-31T12:07:40.593Z,18.2654
2024-03-31T12:08:47.542Z,17.7153
2024-03-31T12:09:51.037Z,17.4617
2024-03-31T12:10:54.041Z,17.9423
2024-03-31T12:11:59.900Z,18.0278
2024-03-31T12:13:03.421Z,18.0411
2024-03-31T12:14:06.438Z,17.9717
2024-03-31T12:15:09.468Z,19.9451
2024-03-31T12:16:12.471Z,21.0479
2024-03-31T12:17:15.464Z,20.3136
2024-03-31T12:18:18.483Z,19.5499
2024-03-31T12:19:21.459Z,17.6726
2024-03-31T12:20:24.483Z,17.1065
2024-03-31T12:21:27.500Z,16.7407
2024-03-31T12:22:30.519Z,16.2600
2024-03-31T12:23:33.587Z,16.2467
2024-03-31T12:24:36.587Z,16.2760
2024-03-31T12:25:39.563Z,16.1906
2024-03-31T12:26:42.569Z,16.5724
2024-03-31T12:27:45.525Z,16.7967
2024-03-31T12:28:48.560Z,17.1359
2024-03-31T12:29:51.585Z,17.7714
2024-03-31T12:30:54.612Z,18.3642
2024-03-31T12:31:57.868Z,18.5191
2024-03-31T12:33:00.822Z,18.8582
2024-03-31T12:34:03.795Z,17.5605
2024-03-31T12:35:06.818Z,17.6860
2024-03-31T12:36:09.785Z,18.5485
2024-03-31T12:37:12.773Z,19.1253
2024-03-31T12:38:15.796Z,18.7327
2024-03-31T12:39:18.800Z,18.8315
2024-03-31T12:40:21.849Z,19.3683
2024-03-31T12:41:25.951Z,20.7809
2024-03-31T12:42:29.152Z,20.7515
2024-03-31T12:43:32.140Z,21.7128
2024-03-31T12:44:35.144Z,19.6914
2024-03-31T12:45:38.147Z,18.0545
2024-03-31T12:46:41.133Z,18.7034
2024-03-31T12:47:44.188Z,19.9451
2024-03-31T12:48:47.202Z,19.6780
2024-03-31T12:49:50.225Z,19.7047
2024-03-31T12:50:53.211Z,19.3122
2024-03-31T12:51:56.227Z,19.9023
2024-03-31T12:52:59.189Z,19.9317
2024-03-31T12:54:02.224Z,19.5792
2024-03-31T12:55:05.212Z,20.0893
2024-03-31T12:56:08.199Z,19.8756
2024-03-31T12:57:11.188Z,18.6900
2024-03-31T12:58:14.166Z,18.4203